Time;durP1;ratioP1;P1;durP2;ratioP2;P2;SDS_P1;SDS_P2;PMS_P1;PMS_P2;Temp;Humidity;BMP_temperature;BMP_pressure;BME280_temperature;BME280_humidity;BME280_pressure;Samples;Min_cycle;Max_cycle;Signal;HPM_P1;HPM_P2
2023/08/09 00:00:41;;;;;;;11.68;2.03;;;;;;;;;;6045301;29;20536;-77
2023/08/09 00:03:45;;;;;;;5.88;1.73;;;;;;;;;;6044046;29;20311;-76
2023/08/09 00:06:50;;;;;;;9.57;1.90;;;;;;;;;;6052360;29;20301;-76
2023/08/09 00:09:55;;;;;;;5.60;1.83;;;;;;;;;;6048118;29;20241;-77
2023/08/09 00:12:59;;;;;;;4.93;1.52;;;;;;;;;;6067832;29;20293;-77
2023/08/09 00:16:04;;;;;;;5.03;1.67;;;;;;;;;;6068098;29;20360;-77
2023/08/09 00:19:09;;;;;;;5.03;1.67;;;;;;;;;;6068447;29;20321;-77
2023/08/09 00:22:13;;;;;;;6.00;2.00;;;;;;;;;;6068085;29;20313;-77
2023/08/09 00:25:18;;;;;;;3.63;1.73;;;;;;;;;;6067862;29;20485;-77
2023/08/09 00:28:22;;;;;;;5.50;1.90;;;;;;;;;;6069785;29;20333;-77
2023/08/09 00:31:28;;;;;;;4.28;1.60;;;;;;;;;;6068131;29;20293;-77
2023/08/09 00:34:31;;;;;;;6.35;1.58;;;;;;;;;;6067740;29;20297;-77
2023/08/09 00:37:35;;;;;;;4.30;1.80;;;;;;;;;;6065855;29;20300;-79
2023/08/09 00:40:39;;;;;;;6.35;1.73;;;;;;;;;;6066939;29;20523;-77
2023/08/09 00:43:43;;;;;;;2.50;1.60;;;;;;;;;;6069493;29;20593;-77
2023/08/09 00:46:49;;;;;;;4.43;1.75;;;;;;;;;;6072369;29;20342;-77
2023/08/09 00:49:55;;;;;;;2.03;1.80;;;;;;;;;;6070113;29;20304;-76
2023/08/09 00:53:00;;;;;;;4.88;1.75;;;;;;;;;;6070156;29;20293;-77
2023/08/09 00:56:04;;;;;;;4.10;1.60;;;;;;;;;;6070568;29;20313;-76
2023/08/09 00:59:08;;;;;;;2.63;1.80;;;;;;;;;;6070270;29;20301;-78
2023/08/09 01:02:13;;;;;;;2.90;1.70;;;;;;;;;;6070167;29;20302;-76
2023/08/09 01:05:17;;;;;;;4.85;1.92;;;;;;;;;;6070860;29;20331;-76
2023/08/09 01:08:27;;;;;;;4.65;1.90;;;;;;;;;;6069730;29;20300;-76
2023/08/09 01:11:44;;;;;;;1.70;1.60;;;;;;;;;;6055516;29;20305;-77
2023/08/09 01:14:52;;;;;;;3.67;1.52;;;;;;;;;;6047901;29;20490;-76
2023/08/09 01:17:59;;;;;;;5.68;2.15;;;;;;;;;;6046540;29;20602;-76
2023/08/09 01:21:03;;;;;;;4.03;1.70;;;;;;;;;;6048498;29;20610;-76
2023/08/09 01:24:09;;;;;;;4.22;1.80;;;;;;;;;;6046719;29;20306;-76
2023/08/09 01:27:13;;;;;;;3.92;1.40;;;;;;;;;;6050228;29;20298;-77
2023/08/09 01:30:17;;;;;;;3.75;1.60;;;;;;;;;;6048389;29;20318;-77
2023/08/09 01:33:21;;;;;;;8.18;2.05;;;;;;;;;;6050744;29;20301;-77
2023/08/09 01:36:31;;;;;;;4.55;1.90;;;;;;;;;;6069451;29;20301;-77
2023/08/09 01:39:38;;;;;;;5.47;2.03;;;;;;;;;;6067878;29;20562;-77
2023/08/09 01:42:42;;;;;;;1.65;1.55;;;;;;;;;;6070555;29;20261;-77
2023/08/09 01:45:46;;;;;;;7.85;1.80;;;;;;;;;;6069941;29;20277;-77
2023/08/09 01:48:50;;;;;;;3.10;1.35;;;;;;;;;;6070188;29;20304;-77
2023/08/09 01:51:54;;;;;;;2.75;1.67;;;;;;;;;;6070598;29;20310;-77
2023/08/09 01:55:00;;;;;;;5.15;1.80;;;;;;;;;;6069488;29;20300;-76
2023/08/09 01:58:05;;;;;;;4.72;1.50;;;;;;;;;;6068971;29;20293;-77
2023/08/09 02:01:09;;;;;;;4.88;2.10;;;;;;;;;;6069425;29;20304;-78
2023/08/09 02:04:12;;;;;;;4.18;1.83;;;;;;;;;;6068383;29;20301;-77
2023/08/09 02:07:16;;;;;;;3.00;1.85;;;;;;;;;;6068835;29;20302;-77
2023/08/09 02:10:21;;;;;;;8.70;1.77;;;;;;;;;;6069725;29;20301;-77
2023/08/09 02:13:25;;;;;;;1.92;1.60;;;;;;;;;;6068170;29;20318;-77
2023/08/09 02:16:29;;;;;;;5.07;1.83;;;;;;;;;;6068903;29;20299;-78
2023/08/09 02:19:33;;;;;;;5.35;1.85;;;;;;;;;;6069383;29;20321;-77
2023/08/09 02:22:37;;;;;;;4.03;1.92;;;;;;;;;;6069950;29;20601;-78
2023/08/09 02:25:43;;;;;;;1.92;1.50;;;;;;;;;;6068446;29;20469;-78
2023/08/09 02:28:48;;;;;;;3.75;1.50;;;;;;;;;;6069537;29;20325;-77
2023/08/09 02:31:52;;;;;;;5.10;1.70;;;;;;;;;;6068400;29;20300;-77
2023/08/09 02:34:56;;;;;;;3.60;1.73;;;;;;;;;;6052682;29;20305;-76
2023/08/09 02:38:00;;;;;;;5.95;1.73;;;;;;;;;;6045490;29;20302;-76
2023/08/09 02:41:06;;;;;;;5.85;1.95;;;;;;;;;;6045391;29;20365;-78
2023/08/09 02:44:09;;;;;;;2.60;1.85;;;;;;;;;;6047560;29;20302;-77
2023/08/09 02:47:14;;;;;;;3.60;1.90;;;;;;;;;;6046882;29;20455;-78
2023/08/09 02:50:18;;;;;;;1.80;1.70;;;;;;;;;;6047500;29;20298;-78
2023/08/09 02:53:38;;;;;;;4.57;1.42;;;;;;;;;;6044295;29;20293;-77
2023/08/09 02:56:43;;;;;;;3.97;1.38;;;;;;;;;;6044685;29;20479;-77
2023/08/09 02:59:47;;;;;;;5.50;1.77;;;;;;;;;;6045320;29;20314;-77
2023/08/09 03:02:51;;;;;;;6.03;1.33;;;;;;;;;;6047554;29;20309;-78
2023/08/09 03:05:56;;;;;;;4.47;1.70;;;;;;;;;;6056394;29;20297;-78
2023/08/09 03:08:59;;;;;;;5.47;1.30;;;;;;;;;;6046837;29;20318;-76
2023/08/09 03:12:06;;;;;;;3.05;1.70;;;;;;;;;;6057258;29;20297;-78
2023/08/09 03:15:10;;;;;;;5.60;1.88;;;;;;;;;;6067997;29;20313;-77
2023/08/09 03:18:14;;;;;;;6.25;1.70;;;;;;;;;;6068088;29;20300;-76
2023/08/09 03:21:18;;;;;;;3.42;1.77;;;;;;;;;;6049889;29;20293;-77
2023/08/09 03:24:23;;;;;;;6.80;1.88;;;;;;;;;;6043790;29;20306;-76
2023/08/09 03:27:28;;;;;;;2.38;1.52;;;;;;;;;;6045000;29;20301;-77
2023/08/09 03:30:33;;;;;;;4.28;1.98;;;;;;;;;;6042593;29;20305;-77
2023/08/09 03:33:37;;;;;;;5.63;2.05;;;;;;;;;;6049649;29;20805;-77
2023/08/09 03:36:41;;;;;;;3.88;1.63;;;;;;;;;;6062490;29;20527;-77
2023/08/09 03:39:45;;;;;;;10.38;1.90;;;;;;;;;;6044038;29;20310;-77
2023/08/09 03:42:50;;;;;;;5.63;1.73;;;;;;;;;;6044244;29;20293;-77
2023/08/09 03:45:54;;;;;;;7.38;2.20;;;;;;;;;;6044801;29;20286;-77
2023/08/09 03:48:58;;;;;;;4.53;1.83;;;;;;;;;;6044801;29;20298;-76
2023/08/09 03:52:06;;;;;;;4.43;2.05;;;;;;;;;;6044165;29;20543;-77
2023/08/09 03:55:11;;;;;;;3.05;1.95;;;;;;;;;;6046722;29;20470;-76
2023/08/09 03:58:16;;;;;;;4.47;1.98;;;;;;;;;;6043568;29;20329;-76
2023/08/09 04:01:20;;;;;;;2.75;1.83;;;;;;;;;;6045169;29;20308;-77
2023/08/09 04:04:24;;;;;;;6.63;1.60;;;;;;;;;;6036269;29;20314;-77
2023/08/09 04:07:27;;;;;;;4.93;1.80;;;;;;;;;;6022330;29;20294;-77
2023/08/09 04:10:31;;;;;;;3.20;1.55;;;;;;;;;;6023829;29;20318;-77
2023/08/09 04:13:37;;;;;;;2.75;1.55;;;;;;;;;;6044753;29;20305;-77
2023/08/09 04:16:41;;;;;;;2.75;1.80;;;;;;;;;;6061782;29;20489;-77
2023/08/09 04:19:44;;;;;;;2.95;1.70;;;;;;;;;;6048510;29;20301;-76
2023/08/09 04:22:48;;;;;;;7.45;2.05;;;;;;;;;;6049997;29;20301;-76
2023/08/09 04:25:52;;;;;;;2.60;1.50;;;;;;;;;;6049060;29;20388;-77
2023/08/09 04:28:57;;;;;;;5.32;1.83;;;;;;;;;;6048972;29;20632;-76
2023/08/09 04:32:01;;;;;;;4.15;1.55;;;;;;;;;;6049195;29;20463;-76
2023/08/09 04:35:06;;;;;;;6.65;2.15;;;;;;;;;;6031403;29;20563;-77
2023/08/09 04:38:10;;;;;;;5.18;1.77;;;;;;;;;;6025953;29;20302;-77
2023/08/09 04:41:14;;;;;;;4.43;2.05;;;;;;;;;;6024989;29;20310;-76
2023/08/09 04:44:19;;;;;;;7.05;1.80;;;;;;;;;;6025903;29;20298;-76
2023/08/09 04:47:23;;;;;;;5.43;1.83;;;;;;;;;;6026216;29;20302;-77
2023/08/09 04:50:27;;;;;;;6.03;1.83;;;;;;;;;;6024739;29;20298;-77
2023/08/09 04:53:31;;;;;;;4.65;1.70;;;;;;;;;;6025574;29;20314;-76
2023/08/09 04:56:35;;;;;;;3.05;1.85;;;;;;;;;;6040089;29;20302;-78
2023/08/09 04:59:40;;;;;;;7.03;2.00;;;;;;;;;;6025416;29;20298;-76
2023/08/09 05:02:44;;;;;;;6.38;2.05;;;;;;;;;;6025801;29;20306;-76
2023/08/09 05:05:48;;;;;;;8.07;2.00;;;;;;;;;;6025382;29;20302;-76
2023/08/09 05:08:52;;;;;;;7.53;2.35;;;;;;;;;;6039559;29;20555;-76
2023/08/09 05:11:55;;;;;;;2.92;1.90;;;;;;;;;;6039802;29;20301;-76
2023/08/09 05:15:00;;;;;;;7.90;1.90;;;;;;;;;;6061643;29;20487;-78
2023/08/09 05:18:05;;;;;;;4.60;2.00;;;;;;;;;;6048537;29;20306;-77
2023/08/09 05:21:09;;;;;;;4.65;1.70;;;;;;;;;;6047935;29;20309;-76
2023/08/09 05:24:13;;;;;;;3.53;1.50;;;;;;;;;;6061752;29;20305;-76
2023/08/09 05:27:18;;;;;;;8.13;2.13;;;;;;;;;;6061679;29;20302;-76
2023/08/09 05:30:23;;;;;;;5.03;1.70;;;;;;;;;;6047106;29;20301;-76
2023/08/09 05:33:27;;;;;;;4.97;2.13;;;;;;;;;;6042581;29;20298;-76
2023/08/09 05:36:32;;;;;;;7.85;2.10;;;;;;;;;;6024567;29;20279;-77
2023/08/09 05:39:36;;;;;;;3.53;1.73;;;;;;;;;;6024287;29;20314;-76
2023/08/09 05:42:40;;;;;;;4.03;1.95;;;;;;;;;;6024675;29;20255;-76
2023/08/09 05:45:46;;;;;;;5.85;2.28;;;;;;;;;;6023554;29;20302;-77
2023/08/09 05:48:50;;;;;;;3.38;2.15;;;;;;;;;;6024495;29;20325;-77
2023/08/09 05:51:54;;;;;;;5.97;1.85;;;;;;;;;;6025759;29;20307;-76
2023/08/09 05:54:58;;;;;;;5.32;2.03;;;;;;;;;;6024670;29;20303;-77
2023/08/09 05:58:03;;;;;;;6.43;1.92;;;;;;;;;;6039440;29;20314;-77
2023/08/09 06:01:08;;;;;;;6.65;2.20;;;;;;;;;;6024967;29;20305;-77
2023/08/09 06:04:13;;;;;;;9.63;2.10;;;;;;;;;;6034954;29;20306;-77
2023/08/09 06:07:17;;;;;;;5.50;2.27;;;;;;;;;;6046546;29;20471;-78
2023/08/09 06:10:21;;;;;;;6.50;2.28;;;;;;;;;;6047902;29;20474;-76
2023/08/09 06:13:25;;;;;;;3.17;2.10;;;;;;;;;;6067518;29;20488;-78
2023/08/09 06:16:31;;;;;;;3.75;2.00;;;;;;;;;;6070689;29;20296;-78
2023/08/09 06:19:35;;;;;;;6.90;2.28;;;;;;;;;;6069744;29;20312;-76
2023/08/09 06:22:38;;;;;;;10.10;1.92;;;;;;;;;;6070712;29;20305;-77
2023/08/09 06:25:42;;;;;;;6.68;2.05;;;;;;;;;;6071111;29;20301;-76
2023/08/09 06:28:48;;;;;;;3.40;1.75;;;;;;;;;;6068942;29;20292;-78
2023/08/09 06:31:53;;;;;;;4.63;1.80;;;;;;;;;;6069517;29;20309;-77
2023/08/09 06:34:57;;;;;;;3.75;1.88;;;;;;;;;;6053448;29;20321;-77
2023/08/09 06:38:01;;;;;;;4.70;1.60;;;;;;;;;;6046994;29;20309;-77
2023/08/09 06:41:18;;;;;;;3.25;1.70;;;;;;;;;;6045318;29;20408;-77
2023/08/09 06:44:22;;;;;;;2.80;1.55;;;;;;;;;;6045795;29;20459;-77
2023/08/09 06:47:27;;;;;;;2.03;1.63;;;;;;;;;;6046710;29;20297;-76
2023/08/09 06:50:31;;;;;;;4.53;2.20;;;;;;;;;;6046215;29;20554;-76
2023/08/09 06:53:35;;;;;;;2.38;1.50;;;;;;;;;;6046280;29;20305;-76
2023/08/09 06:56:39;;;;;;;2.47;1.75;;;;;;;;;;6046554;29;20302;-76
2023/08/09 06:59:42;;;;;;;3.08;1.55;;;;;;;;;;6046149;29;20313;-76
2023/08/09 07:02:48;;;;;;;1.90;1.70;;;;;;;;;;6046731;29;20301;-77
2023/08/09 07:05:52;;;;;;;2.00;1.55;;;;;;;;;;6045615;29;20294;-77
2023/08/09 07:08:56;;;;;;;3.30;1.60;;;;;;;;;;6046041;29;20304;-77
2023/08/09 07:12:00;;;;;;;3.78;1.35;;;;;;;;;;6059894;29;20341;-77
2023/08/09 07:15:07;;;;;;;5.30;1.52;;;;;;;;;;6069876;29;20308;-78
2023/08/09 07:18:13;;;;;;;3.83;1.42;;;;;;;;;;6069546;29;20597;-79
2023/08/09 07:21:17;;;;;;;3.40;1.98;;;;;;;;;;6068356;29;20305;-79
2023/08/09 07:24:21;;;;;;;3.47;1.40;;;;;;;;;;6067583;29;20317;-78
2023/08/09 07:27:25;;;;;;;2.97;1.40;;;;;;;;;;6069277;29;20627;-76
2023/08/09 07:30:29;;;;;;;2.22;1.20;;;;;;;;;;6067295;29;20597;-77
2023/08/09 07:33:34;;;;;;;2.03;1.23;;;;;;;;;;6063761;29;20325;-77
2023/08/09 07:36:37;;;;;;;2.38;1.15;;;;;;;;;;6044605;29;20277;-76
2023/08/09 07:39:41;;;;;;;1.02;1.00;;;;;;;;;;6035644;29;20313;-76
2023/08/09 07:42:45;;;;;;;2.92;1.20;;;;;;;;;;6045724;29;20242;-77
2023/08/09 07:45:49;;;;;;;1.70;1.13;;;;;;;;;;6045119;29;20358;-77
2023/08/09 07:48:54;;;;;;;5.60;1.50;;;;;;;;;;6044367;29;20294;-77
2023/08/09 07:51:58;;;;;;;1.85;1.50;;;;;;;;;;6048159;29;20602;-78
2023/08/09 07:55:04;;;;;;;2.50;1.40;;;;;;;;;;6040128;29;20301;-78
2023/08/09 07:58:09;;;;;;;2.50;1.35;;;;;;;;;;6050214;29;20297;-76
2023/08/09 08:01:12;;;;;;;2.65;1.60;;;;;;;;;;6048660;29;20369;-76
2023/08/09 08:04:18;;;;;;;3.35;1.80;;;;;;;;;;6049205;29;20297;-76
2023/08/09 08:07:23;;;;;;;3.00;1.40;;;;;;;;;;6048967;29;20465;-76
2023/08/09 08:10:27;;;;;;;3.17;1.75;;;;;;;;;;6049395;29;20302;-78
2023/08/09 08:13:31;;;;;;;3.90;1.38;;;;;;;;;;6071626;29;20344;-77
2023/08/09 08:16:35;;;;;;;6.10;1.20;;;;;;;;;;6072984;29;20300;-76
2023/08/09 08:19:40;;;;;;;3.67;1.65;;;;;;;;;;6072177;29;20301;-76
2023/08/09 08:22:44;;;;;;;1.20;1.15;;;;;;;;;;6072636;29;20297;-76
2023/08/09 08:25:48;;;;;;;4.65;1.45;;;;;;;;;;6071705;29;20330;-76
2023/08/09 08:28:52;;;;;;;3.33;1.30;;;;;;;;;;6071888;29;20308;-76
2023/08/09 08:31:57;;;;;;;1.60;1.50;;;;;;;;;;6072969;29;20312;-77
2023/08/09 08:35:03;;;;;;;1.40;1.20;;;;;;;;;;6055251;29;20305;-77
2023/08/09 08:38:07;;;;;;;3.88;1.80;;;;;;;;;;6049601;29;20314;-76
2023/08/09 08:41:11;;;;;;;2.28;1.55;;;;;;;;;;6049622;29;20305;-76
2023/08/09 08:44:15;;;;;;;6.00;1.73;;;;;;;;;;6048369;29;20313;-76
2023/08/09 08:47:19;;;;;;;6.18;1.67;;;;;;;;;;6049500;29;20309;-77
2023/08/09 08:50:25;;;;;;;4.00;1.65;;;;;;;;;;6048857;29;20298;-76
2023/08/09 08:53:29;;;;;;;4.13;1.95;;;;;;;;;;6051062;29;20310;-77
2023/08/09 08:56:34;;;;;;;2.60;1.90;;;;;;;;;;6047891;29;20495;-76
2023/08/09 08:59:39;;;;;;;4.00;1.60;;;;;;;;;;6048511;29;20305;-77
2023/08/09 09:02:43;;;;;;;3.85;1.60;;;;;;;;;;6047688;29;20348;-78
2023/08/09 09:05:48;;;;;;;4.65;1.65;;;;;;;;;;6048586;29;20389;-78
2023/08/09 09:08:59;;;;;;;5.55;1.73;;;;;;;;;;6047278;29;20558;-78
2023/08/09 09:12:03;;;;;;;3.30;1.70;;;;;;;;;;6062767;29;20307;-78
2023/08/09 09:15:09;;;;;;;1.73;1.63;;;;;;;;;;6071544;29;20301;-78
2023/08/09 09:18:13;;;;;;;4.32;1.67;;;;;;;;;;6072091;29;20586;-78
2023/08/09 09:21:19;;;;;;;4.65;1.50;;;;;;;;;;6070617;29;20298;-78
2023/08/09 09:24:23;;;;;;;3.10;1.70;;;;;;;;;;6071281;29;20309;-78
2023/08/09 09:27:28;;;;;;;4.80;1.75;;;;;;;;;;6071863;29;20300;-78
2023/08/09 09:30:32;;;;;;;7.85;2.30;;;;;;;;;;6070649;29;20475;-77
2023/08/09 09:33:37;;;;;;;6.90;2.33;;;;;;;;;;6065156;29;20464;-78
2023/08/09 09:36:48;;;;;;;2.70;1.90;;;;;;;;;;6048335;29;20250;-77
2023/08/09 09:39:53;;;;;;;4.15;2.03;;;;;;;;;;6048127;29;20418;-78
2023/08/09 09:43:01;;;;;;;5.75;1.58;;;;;;;;;;6048713;29;20558;-78
2023/08/09 09:46:04;;;;;;;1.75;1.60;;;;;;;;;;6046573;29;20294;-78
2023/08/09 09:49:08;;;;;;;3.58;1.90;;;;;;;;;;6047739;29;20293;-77
2023/08/09 09:52:14;;;;;;;2.90;1.83;;;;;;;;;;6047968;29;20302;-78
2023/08/09 09:55:19;;;;;;;3.08;1.73;;;;;;;;;;6048495;29;20293;-78
2023/08/09 09:58:23;;;;;;;6.93;1.75;;;;;;;;;;6047781;29;20326;-78
2023/08/09 10:01:28;;;;;;;4.07;1.75;;;;;;;;;;6047924;29;20301;-78
2023/08/09 10:04:32;;;;;;;7.30;1.67;;;;;;;;;;6047325;29;20452;-77
2023/08/09 10:07:38;;;;;;;1.83;1.70;;;;;;;;;;6048456;29;20298;-77
2023/08/09 10:10:43;;;;;;;3.20;2.05;;;;;;;;;;6050398;29;20289;-77
2023/08/09 10:13:47;;;;;;;4.25;1.83;;;;;;;;;;6070253;29;20344;-77
2023/08/09 10:16:51;;;;;;;3.30;2.10;;;;;;;;;;6071131;29;20304;-77
2023/08/09 10:20:06;;;;;;;4.13;1.88;;;;;;;;;;6072926;29;20365;-77
2023/08/09 10:23:21;;;;;;;2.30;1.50;;;;;;;;;;6071359;29;20309;-77
2023/08/09 10:26:29;;;;;;;4.63;1.98;;;;;;;;;;6069581;29;20301;-77
2023/08/09 10:29:33;;;;;;;5.15;1.95;;;;;;;;;;6069773;29;20328;-77
2023/08/09 10:32:48;;;;;;;6.57;1.88;;;;;;;;;;6070479;29;20317;-77
2023/08/09 10:35:54;;;;;;;5.35;2.10;;;;;;;;;;6022282;29;20326;-78
2023/08/09 10:38:59;;;;;;;4.13;1.88;;;;;;;;;;6023762;29;20429;-79
2023/08/09 10:42:06;;;;;;;4.65;2.00;;;;;;;;;;6024270;29;20490;-77
2023/08/09 10:45:11;;;;;;;6.40;2.05;;;;;;;;;;6023727;29;20302;-77
2023/08/09 10:48:21;;;;;;;3.95;1.60;;;;;;;;;;6023624;29;20303;-78
2023/08/09 10:51:25;;;;;;;2.10;1.50;;;;;;;;;;6024151;29;20290;-78
2023/08/09 10:54:30;;;;;;;4.07;1.83;;;;;;;;;;6022243;29;20523;-77
2023/08/09 10:57:41;;;;;;;1.35;1.25;;;;;;;;;;6023684;29;20262;-77
2023/08/09 11:00:48;;;;;;;2.75;1.40;;;;;;;;;;6023410;29;20302;-77
2023/08/09 11:03:53;;;;;;;2.70;1.40;;;;;;;;;;6022891;29;20307;-77
2023/08/09 11:06:58;;;;;;;4.72;1.50;;;;;;;;;;6023537;29;20291;-77
2023/08/09 11:10:03;;;;;;;4.22;1.35;;;;;;;;;;6022537;29;20478;-76
2023/08/09 11:13:08;;;;;;;5.38;1.63;;;;;;;;;;6067071;29;20565;-76
2023/08/09 11:16:12;;;;;;;1.95;1.58;;;;;;;;;;6068935;29;20293;-76
2023/08/09 11:19:21;;;;;;;4.20;1.83;;;;;;;;;;6069187;29;20290;-77
2023/08/09 11:22:38;;;;;;;6.07;2.20;;;;;;;;;;6072315;29;20313;-77
2023/08/09 11:25:44;;;;;;;4.45;1.73;;;;;;;;;;6068146;29;20484;-77
2023/08/09 11:28:49;;;;;;;5.40;1.80;;;;;;;;;;6068838;29;20309;-77
2023/08/09 11:31:54;;;;;;;4.68;2.00;;;;;;;;;;6069453;29;20300;-77
2023/08/09 11:34:58;;;;;;;2.15;1.70;;;;;;;;;;6052357;29;20306;-77
2023/08/09 11:38:07;;;;;;;4.28;1.40;;;;;;;;;;6046247;29;20295;-77
2023/08/09 11:41:16;;;;;;;2.85;1.92;;;;;;;;;;6045634;29;20306;-77
2023/08/09 11:44:25;;;;;;;3.72;1.65;;;;;;;;;;6045025;29;20309;-77
2023/08/09 11:47:31;;;;;;;2.30;1.55;;;;;;;;;;6046135;29;20485;-77
2023/08/09 11:50:35;;;;;;;4.63;1.42;;;;;;;;;;6045376;29;20302;-77
2023/08/09 11:53:40;;;;;;;2.42;1.50;;;;;;;;;;6044878;29;20467;-77
2023/08/09 11:56:45;;;;;;;5.40;1.60;;;;;;;;;;6046111;29;20309;-77
2023/08/09 11:59:49;;;;;;;3.97;1.60;;;;;;;;;;6045036;29;20305;-77
2023/08/09 12:02:59;;;;;;;1.95;1.77;;;;;;;;;;6045514;29;20297;-76
2023/08/09 12:06:04;;;;;;;1.60;1.42;;;;;;;;;;6045030;29;20503;-77
2023/08/09 12:09:35;;;;;;;4.32;1.50;;;;;;;;;;6045199;29;20316;-77
2023/08/09 12:12:42;;;;;;;3.03;1.67;;;;;;;;;;6046069;29;20284;-77
2023/08/09 12:15:47;;;;;;;1.73;1.20;;;;;;;;;;6067811;29;20313;-77
2023/08/09 12:18:50;;;;;;;2.65;1.23;;;;;;;;;;6069216;29;20305;-76
2023/08/09 12:21:54;;;;;;;1.38;1.27;;;;;;;;;;6068020;29;20289;-77
2023/08/09 12:24:58;;;;;;;2.05;1.45;;;;;;;;;;6067699;29;20296;-77
2023/08/09 12:28:04;;;;;;;3.28;1.10;;;;;;;;;;6068565;29;20357;-76
2023/08/09 12:31:08;;;;;;;7.47;1.95;;;;;;;;;;6067112;29;20297;-77
2023/08/09 12:34:13;;;;;;;1.40;1.30;;;;;;;;;;6056076;29;20318;-76
2023/08/09 12:37:17;;;;;;;2.05;1.15;;;;;;;;;;6047137;29;20301;-78
2023/08/09 12:40:21;;;;;;;2.45;1.20;;;;;;;;;;6049087;29;20488;-77
2023/08/09 12:43:26;;;;;;;2.55;1.30;;;;;;;;;;6049376;29;20309;-77
2023/08/09 12:46:31;;;;;;;1.10;1.00;;;;;;;;;;6049854;29;20557;-77
2023/08/09 12:49:35;;;;;;;3.33;1.27;;;;;;;;;;6048246;29;20318;-77
2023/08/09 12:52:39;;;;;;;3.42;1.33;;;;;;;;;;6049097;29;20381;-77
2023/08/09 12:55:43;;;;;;;3.47;1.40;;;;;;;;;;6048029;29;20313;-77
2023/08/09 12:58:49;;;;;;;1.25;0.93;;;;;;;;;;6048456;29;20301;-77
2023/08/09 13:01:52;;;;;;;3.10;1.60;;;;;;;;;;6049124;29;20306;-77
2023/08/09 13:04:57;;;;;;;1.63;1.30;;;;;;;;;;6048058;29;20317;-78
2023/08/09 13:08:00;;;;;;;2.60;1.67;;;;;;;;;;6048702;29;20309;-77
2023/08/09 13:11:04;;;;;;;3.50;1.48;;;;;;;;;;6054111;29;20486;-77
2023/08/09 13:14:09;;;;;;;3.25;1.65;;;;;;;;;;6070573;29;20296;-78
2023/08/09 13:17:13;;;;;;;3.00;1.50;;;;;;;;;;6071788;29;20297;-77
2023/08/09 13:20:17;;;;;;;2.08;1.40;;;;;;;;;;6071051;29;20302;-77
2023/08/09 13:23:21;;;;;;;1.75;1.40;;;;;;;;;;6070735;29;20300;-77
2023/08/09 13:26:25;;;;;;;5.13;1.65;;;;;;;;;;6070128;29;20458;-78
2023/08/09 13:29:31;;;;;;;5.60;1.48;;;;;;;;;;6071007;29;20301;-77
2023/08/09 13:32:35;;;;;;;7.07;1.65;;;;;;;;;;6071520;29;20297;-78
2023/08/09 13:35:39;;;;;;;1.85;1.52;;;;;;;;;;6039676;29;20382;-78
2023/08/09 13:38:43;;;;;;;2.22;1.42;;;;;;;;;;6024855;29;20627;-78
2023/08/09 13:41:47;;;;;;;1.38;1.27;;;;;;;;;;6025304;29;20294;-78
2023/08/09 13:44:52;;;;;;;4.82;1.92;;;;;;;;;;6024599;29;20302;-78
2023/08/09 13:47:56;;;;;;;4.90;1.50;;;;;;;;;;6025351;29;20290;-77
2023/08/09 13:51:01;;;;;;;1.75;1.40;;;;;;;;;;6024798;29;20305;-77
2023/08/09 13:54:05;;;;;;;1.10;1.10;;;;;;;;;;6024625;29;20543;-77
2023/08/09 13:57:09;;;;;;;4.30;1.45;;;;;;;;;;6025607;29;20306;-78
2023/08/09 14:00:15;;;;;;;4.22;1.58;;;;;;;;;;6027115;29;20306;-77
2023/08/09 14:03:18;;;;;;;2.85;1.30;;;;;;;;;;6022684;29;20325;-78
2023/08/09 14:06:22;;;;;;;4.72;1.63;;;;;;;;;;6024655;29;20597;-77
2023/08/09 14:09:26;;;;;;;2.60;1.48;;;;;;;;;;6024186;29;20302;-77
2023/08/09 14:12:30;;;;;;;2.95;1.40;;;;;;;;;;6058485;29;20288;-77
2023/08/09 14:15:35;;;;;;;4.70;1.88;;;;;;;;;;6069005;29;20723;-79
2023/08/09 14:18:39;;;;;;;5.47;1.67;;;;;;;;;;6069932;29;20488;-78
2023/08/09 14:21:43;;;;;;;4.40;1.65;;;;;;;;;;6071338;29;20467;-76
2023/08/09 14:24:47;;;;;;;7.40;2.05;;;;;;;;;;6071500;29;20296;-77
2023/08/09 14:27:52;;;;;;;4.38;1.63;;;;;;;;;;6071321;29;20316;-78
2023/08/09 14:30:57;;;;;;;1.85;1.58;;;;;;;;;;6071174;29;20509;-78
2023/08/09 14:34:01;;;;;;;2.28;1.55;;;;;;;;;;6063225;29;20294;-78
2023/08/09 14:37:05;;;;;;;4.15;1.70;;;;;;;;;;6048975;29;20297;-77
2023/08/09 14:40:10;;;;;;;3.22;1.80;;;;;;;;;;6048719;29;20297;-77
2023/08/09 14:43:14;;;;;;;6.13;1.92;;;;;;;;;;6049326;29;20298;-78
2023/08/09 14:46:19;;;;;;;2.47;1.60;;;;;;;;;;6054831;29;20294;-76
2023/08/09 14:49:23;;;;;;;3.45;1.92;;;;;;;;;;6056555;29;20298;-77
2023/08/09 14:52:28;;;;;;;4.43;1.63;;;;;;;;;;6057361;29;20297;-78
2023/08/09 14:55:32;;;;;;;3.15;1.70;;;;;;;;;;6056479;29;20305;-77
2023/08/09 14:58:36;;;;;;;4.85;1.88;;;;;;;;;;6060464;29;20246;-77
2023/08/09 15:01:41;;;;;;;4.93;1.65;;;;;;;;;;6059904;29;20264;-77
2023/08/09 15:04:46;;;;;;;4.30;1.65;;;;;;;;;;6059173;29;20313;-76
2023/08/09 15:07:50;;;;;;;6.93;1.90;;;;;;;;;;6061020;29;20260;-78
2023/08/09 15:10:57;;;;;;;3.22;1.42;;;;;;;;;;6062563;29;20289;-78
2023/08/09 15:14:01;;;;;;;5.43;1.90;;;;;;;;;;6082628;29;20280;-81
2023/08/09 15:17:07;;;;;;;2.80;1.70;;;;;;;;;;6080180;29;20297;-77
2023/08/09 15:20:14;;;;;;;2.97;2.00;;;;;;;;;;6079070;29;20293;-77
2023/08/09 15:23:17;;;;;;;4.65;1.92;;;;;;;;;;6064069;29;20309;-77
2023/08/09 15:26:21;;;;;;;4.65;2.03;;;;;;;;;;6068788;29;20305;-76
2023/08/09 15:29:25;;;;;;;4.22;1.73;;;;;;;;;;6068243;29;20297;-78
2023/08/09 15:32:33;;;;;;;12.02;1.83;;;;;;;;;;6068964;29;20580;-77
2023/08/09 15:35:37;;;;;;;6.07;2.13;;;;;;;;;;6049503;29;20306;-77
2023/08/09 15:38:41;;;;;;;3.00;1.88;;;;;;;;;;6044956;29;20301;-77
2023/08/09 15:41:45;;;;;;;5.30;2.25;;;;;;;;;;6046120;29;20302;-77
2023/08/09 15:44:49;;;;;;;5.10;1.90;;;;;;;;;;6045085;29;20317;-77
2023/08/09 15:47:54;;;;;;;5.20;2.20;;;;;;;;;;6044342;29;20297;-77
2023/08/09 15:50:58;;;;;;;19.27;10.85;;;;;;;;;;6044746;29;20305;-77
2023/08/09 15:54:02;;;;;;;8.52;2.88;;;;;;;;;;6044789;29;20301;-78
2023/08/09 15:57:06;;;;;;;2.40;2.20;;;;;;;;;;6045345;29;20305;-77
2023/08/09 16:00:11;;;;;;;4.90;2.47;;;;;;;;;;6043154;29;20322;-77
2023/08/09 16:03:17;;;;;;;4.28;1.85;;;;;;;;;;6044885;29;20317;-77
2023/08/09 16:06:21;;;;;;;4.88;2.20;;;;;;;;;;6045599;29;20309;-78
2023/08/09 16:09:24;;;;;;;4.32;2.03;;;;;;;;;;6044999;29;20301;-78
2023/08/09 16:12:29;;;;;;;6.28;1.90;;;;;;;;;;6064210;29;20300;-77
2023/08/09 16:15:33;;;;;;;6.10;1.90;;;;;;;;;;6071459;29;20297;-78
2023/08/09 16:18:38;;;;;;;3.85;2.00;;;;;;;;;;6073828;29;20296;-76
2023/08/09 16:21:43;;;;;;;2.97;1.75;;;;;;;;;;6073733;29;20250;-78
2023/08/09 16:24:47;;;;;;;3.50;2.08;;;;;;;;;;6071413;29;20301;-77
2023/08/09 16:27:51;;;;;;;2.38;1.90;;;;;;;;;;6072653;29;20452;-77
2023/08/09 16:30:55;;;;;;;4.07;1.55;;;;;;;;;;6072212;29;20292;-77
2023/08/09 16:34:01;;;;;;;5.88;2.30;;;;;;;;;;6062837;29;20293;-78
2023/08/09 16:37:04;;;;;;;3.00;1.60;;;;;;;;;;6049634;29;20333;-78
2023/08/09 16:40:09;;;;;;;5.13;1.75;;;;;;;;;;6048516;29;20302;-77
2023/08/09 16:43:13;;;;;;;8.25;1.90;;;;;;;;;;6047969;29;20294;-77
2023/08/09 16:46:17;;;;;;;5.20;1.92;;;;;;;;;;6048560;29;20609;-77
2023/08/09 16:49:22;;;;;;;3.85;1.85;;;;;;;;;;6048920;29;20301;-78
2023/08/09 16:52:27;;;;;;;2.90;2.35;;;;;;;;;;6049491;29;20302;-77
2023/08/09 16:55:33;;;;;;;4.10;1.73;;;;;;;;;;6048653;29;20302;-76
2023/08/09 16:58:37;;;;;;;5.78;1.90;;;;;;;;;;6047944;29;20310;-76
2023/08/09 17:01:41;;;;;;;2.22;1.63;;;;;;;;;;6050617;29;20298;-78
2023/08/09 17:04:46;;;;;;;4.53;2.20;;;;;;;;;;6048211;29;20325;-77
2023/08/09 17:07:50;;;;;;;5.85;1.90;;;;;;;;;;6048806;29;20389;-78
2023/08/09 17:10:53;;;;;;;5.15;2.42;;;;;;;;;;6053004;29;20550;-76
2023/08/09 17:13:57;;;;;;;5.00;2.35;;;;;;;;;;6071049;29;20292;-80
2023/08/09 17:17:01;;;;;;;3.42;1.98;;;;;;;;;;6071982;29;20297;-76
2023/08/09 17:20:09;;;;;;;6.85;2.28;;;;;;;;;;6070907;29;20300;-77
2023/08/09 17:23:13;;;;;;;4.82;2.53;;;;;;;;;;6070420;29;20293;-78
2023/08/09 17:26:17;;;;;;;9.40;4.55;;;;;;;;;;6070379;29;20317;-77
2023/08/09 17:29:20;;;;;;;5.47;2.45;;;;;;;;;;6071072;29;20300;-77
2023/08/09 17:32:24;;;;;;;9.23;2.60;;;;;;;;;;6071375;29;20307;-79
2023/08/09 17:35:30;;;;;;;5.80;2.50;;;;;;;;;;6049916;29;20305;-79
2023/08/09 17:38:35;;;;;;;5.53;2.95;;;;;;;;;;6051332;29;20310;-79
2023/08/09 17:41:39;;;;;;;7.32;3.05;;;;;;;;;;6048431;29;20309;-78
2023/08/09 17:44:43;;;;;;;8.07;2.28;;;;;;;;;;6047399;29;20301;-80
2023/08/09 17:47:47;;;;;;;5.88;2.30;;;;;;;;;;6047890;29;20313;-78
2023/08/09 17:50:53;;;;;;;6.00;1.85;;;;;;;;;;6047305;29;20306;-77
2023/08/09 17:53:56;;;;;;;6.55;2.05;;;;;;;;;;6047215;29;20306;-77
2023/08/09 17:57:00;;;;;;;8.40;2.25;;;;;;;;;;6047833;29;20315;-77
2023/08/09 18:00:10;;;;;;;3.65;1.85;;;;;;;;;;6046781;29;20326;-77
2023/08/09 18:03:14;;;;;;;8.48;2.08;;;;;;;;;;6045870;29;20318;-77
2023/08/09 18:06:19;;;;;;;10.00;2.25;;;;;;;;;;6045092;29;20294;-77
2023/08/09 18:09:23;;;;;;;10.82;2.22;;;;;;;;;;6046465;29;20294;-77
2023/08/09 18:12:27;;;;;;;8.38;2.83;;;;;;;;;;6065062;29;20296;-77
2023/08/09 18:15:31;;;;;;;3.78;1.73;;;;;;;;;;6069857;29;20300;-78
2023/08/09 18:18:34;;;;;;;6.65;2.15;;;;;;;;;;6069658;29;20304;-76
2023/08/09 18:21:40;;;;;;;7.78;2.45;;;;;;;;;;6069664;29;20293;-76
2023/08/09 18:24:43;;;;;;;10.93;2.60;;;;;;;;;;6070667;29;20305;-77
2023/08/09 18:27:47;;;;;;;6.40;2.13;;;;;;;;;;6071550;29;20249;-77